Time;durP1;ratioP1;P1;durP2;ratioP2;P2;SDS_P1;SDS_P2;PMS_P1;PMS_P2;Temp;Humidity;BMP_temperature;BMP_pressure;BME280_temperature;BME280_humidity;BME280_pressure;Samples;Min_cycle;Max_cycle;Signal;HPM_P1;HPM_P2
2021/08/22 00:00:06;;;;;;;5.95;5.35;;;;;;;15.07;100.00;93330.13;2105687;28;20024;-86
2021/08/22 00:01:07;;;;;;;8.15;5.40;;;;;;;15.06;100.00;93329.38;2114204;28;20088;-85
2021/08/22 00:02:07;;;;;;;6.65;5.72;;;;;;;15.03;100.00;93332.94;2097591;28;20062;-84
2021/08/22 00:03:08;;;;;;;5.07;4.57;;;;;;;15.10;100.00;93334.63;2097476;28;20059;-86
2021/08/22 00:04:10;;;;;;;6.00;5.22;;;;;;;15.21;100.00;93351.16;2114385;28;20488;-85
2021/08/22 00:05:11;;;;;;;6.40;5.32;;;;;;;15.21;100.00;93342.34;2109773;28;20068;-86
2021/08/22 00:06:12;;;;;;;5.53;5.00;;;;;;;15.18;100.00;93345.91;2105753;28;20027;-87
2021/08/22 00:07:13;;;;;;;7.28;5.15;;;;;;;15.23;100.00;93350.72;2105952;28;20051;-84
2021/08/22 00:08:14;;;;;;;5.25;3.25;;;;;;;16.36;85.05;93353.03;2097296;28;20029;-85
2021/08/22 00:09:15;;;;;;;4.22;3.63;;;;;;;16.56;84.64;93360.72;2105841;28;20182;-89
2021/08/22 00:10:16;;;;;;;5.60;3.63;;;;;;;16.71;83.44;93366.28;2105757;28;20078;-86
2021/08/22 00:11:17;;;;;;;4.78;3.65;;;;;;;16.74;86.75;93366.16;2114124;28;20030;-84
2021/08/22 00:12:18;;;;;;;5.35;4.18;;;;;;;16.65;90.05;93370.78;2114221;28;20027;-85
2021/08/22 00:13:19;;;;;;;6.95;3.95;;;;;;;16.78;90.02;93374.13;2114079;28;20028;-84
2021/08/22 00:14:20;;;;;;;5.88;4.15;;;;;;;16.79;90.69;93364.81;2114380;28;20425;-87
2021/08/22 00:15:21;;;;;;;4.35;3.95;;;;;;;16.75;91.32;93361.50;2114301;28;20032;-86
2021/08/22 00:16:22;;;;;;;4.50;4.10;;;;;;;16.68;91.92;93361.75;2105521;28;20036;-86
2021/08/22 00:17:23;;;;;;;4.82;3.92;;;;;;;16.63;92.97;93361.16;2097647;28;20031;-85
2021/08/22 00:18:24;;;;;;;4.43;4.03;;;;;;;16.52;94.69;93368.97;2105806;28;20442;-87
2021/08/22 00:19:28;;;;;;;5.72;4.03;;;;;;;16.53;95.52;93367.75;2114334;28;20509;-85
2021/08/22 00:20:29;;;;;;;4.32;3.92;;;;;;;16.60;94.58;93361.31;2114390;28;20566;-86
2021/08/22 00:21:30;;;;;;;5.72;4.10;;;;;;;16.54;96.00;93363.09;2114227;28;20038;-86
2021/08/22 00:22:30;;;;;;;7.43;4.65;;;;;;;16.48;96.44;93362.94;2096933;28;20035;-84
2021/08/22 00:23:32;;;;;;;6.60;4.35;;;;;;;16.47;97.30;93366.09;2091971;28;20024;-86
2021/08/22 00:24:33;;;;;;;4.50;3.65;;;;;;;16.51;96.69;93364.75;2097499;28;20488;-86
2021/08/22 00:25:34;;;;;;;7.70;3.97;;;;;;;16.50;97.58;93357.09;2096596;28;20123;-85
2021/08/22 00:26:35;;;;;;;4.80;4.40;;;;;;;16.51;97.68;93359.38;2105940;28;20479;-87
2021/08/22 00:27:36;;;;;;;4.55;3.92;;;;;;;16.54;97.53;93363.84;2101200;28;20024;-85
2021/08/22 00:28:37;;;;;;;5.53;4.07;;;;;;;16.47;99.08;93356.06;2097135;28;20512;-85
2021/08/22 00:29:38;;;;;;;5.57;3.83;;;;;;;16.44;100.00;93350.81;2105507;28;20533;-86
2021/08/22 00:30:38;;;;;;;5.28;4.10;;;;;;;16.45;100.00;93341.50;2105905;28;20115;-85
2021/08/22 00:31:39;;;;;;;5.65;3.60;;;;;;;16.46;100.00;93343.78;2097641;28;20107;-86
2021/08/22 00:32:40;;;;;;;6.22;3.85;;;;;;;16.50;100.00;93333.56;2114436;28;20019;-85
2021/08/22 00:33:41;;;;;;;4.20;3.35;;;;;;;16.39;100.00;93335.22;2105205;28;20106;-84
2021/08/22 00:34:42;;;;;;;3.20;2.90;;;;;;;16.32;100.00;93334.28;2097518;28;20025;-86
2021/08/22 00:35:43;;;;;;;3.90;3.30;;;;;;;16.30;100.00;93333.25;2105910;28;20030;-85
2021/08/22 00:36:44;;;;;;;3.75;3.40;;;;;;;16.23;100.00;93328.13;2105880;28;20027;-86
2021/08/22 00:37:45;;;;;;;5.47;2.95;;;;;;;16.26;100.00;93335.31;2105862;28;20023;-86
2021/08/22 00:38:47;;;;;;;3.53;3.13;;;;;;;16.18;100.00;93326.75;2097238;28;20047;-85
2021/08/22 00:39:49;;;;;;;3.70;3.05;;;;;;;16.20;100.00;93329.00;2094212;28;20052;-85
2021/08/22 00:40:50;;;;;;;4.20;3.28;;;;;;;16.21;100.00;93325.88;2103039;28;20068;-85
2021/08/22 00:41:51;;;;;;;3.80;3.08;;;;;;;16.09;100.00;93332.13;2105931;28;20088;-86
2021/08/22 00:42:52;;;;;;;3.45;3.15;;;;;;;16.04;100.00;93332.72;2089417;28;20091;-85
2021/08/22 00:43:53;;;;;;;3.92;3.05;;;;;;;16.06;100.00;93330.31;2097261;28;20047;-85
2021/08/22 00:44:54;;;;;;;3.33;3.10;;;;;;;16.11;100.00;93319.72;2105448;28;20024;-84
2021/08/22 00:45:55;;;;;;;3.78;3.05;;;;;;;16.04;100.00;93316.53;2097579;28;20025;-84
2021/08/22 00:46:57;;;;;;;3.30;2.95;;;;;;;15.98;100.00;93318.31;2088367;28;20099;-85
2021/08/22 00:47:58;;;;;;;3.95;3.47;;;;;;;15.92;100.00;93315.44;2089110;28;20033;-85
2021/08/22 00:48:59;;;;;;;3.45;3.15;;;;;;;15.88;100.00;93306.75;2097472;28;20512;-86
2021/08/22 00:50:00;;;;;;;3.38;3.08;;;;;;;15.86;100.00;93309.16;2105714;28;20086;-86
2021/08/22 00:51:01;;;;;;;3.67;3.30;;;;;;;15.84;100.00;93308.84;2096920;28;20033;-86
2021/08/22 00:52:05;;;;;;;4.15;2.95;;;;;;;15.82;100.00;93311.22;2105713;28;20028;-86
2021/08/22 00:53:06;;;;;;;4.63;3.28;;;;;;;15.77;100.00;93314.50;2105722;28;20174;-87
2021/08/22 00:54:07;;;;;;;4.07;3.67;;;;;;;15.72;100.00;93320.50;2105847;28;20070;-84
2021/08/22 00:55:09;;;;;;;4.57;3.20;;;;;;;15.67;100.00;93319.13;2113801;28;20504;-86
2021/08/22 00:56:11;;;;;;;3.67;2.97;;;;;;;15.69;100.00;93318.66;2097188;28;20477;-84
2021/08/22 00:57:14;;;;;;;3.42;3.13;;;;;;;15.68;100.00;93311.78;2097412;28;20027;-85
2021/08/22 00:58:15;;;;;;;3.45;3.13;;;;;;;15.60;100.00;93314.72;2097243;28;20162;-84
2021/08/22 00:59:18;;;;;;;4.63;3.58;;;;;;;15.61;100.00;93318.16;2097493;28;20029;-85
2021/08/22 01:00:19;;;;;;;4.20;3.10;;;;;;;15.58;100.00;93322.50;2105886;28;20032;-84
2021/08/22 01:01:22;;;;;;;3.28;3.00;;;;;;;15.60;100.00;93320.09;2096986;28;20029;-87
2021/08/22 01:02:30;;;;;;;4.47;2.75;;;;;;;15.60;100.00;93317.41;2105390;28;20264;-85
2021/08/22 01:03:40;;;;;;;3.72;3.20;;;;;;;15.56;100.00;93310.66;2104904;28;20051;-87
2021/08/22 01:04:53;;;;;;;3.50;3.10;;;;;;;15.53;100.00;93309.59;2098668;28;20424;-86
2021/08/22 01:06:21;;;;;;;4.95;3.30;;;;;;;15.55;100.00;93304.50;2097943;28;20573;-84
2021/08/22 01:07:33;;;;;;;3.67;3.38;;;;;;;15.55;100.00;93301.06;2098227;28;20047;-86
2021/08/22 01:08:42;;;;;;;3.70;3.40;;;;;;;15.59;100.00;93299.75;2106450;28;20050;-86
2021/08/22 01:09:50;;;;;;;4.72;3.40;;;;;;;15.58;100.00;93310.94;2098240;28;20035;-85
2021/08/22 01:10:56;;;;;;;3.95;3.55;;;;;;;15.59;100.00;93307.81;2106507;28;20030;-84
2021/08/22 01:12:02;;;;;;;4.00;3.60;;;;;;;15.58;100.00;93297.47;2105419;28;20032;-86
2021/08/22 01:13:07;;;;;;;4.65;3.65;;;;;;;15.59;100.00;93293.59;2090117;28;20061;-86
2021/08/22 01:14:14;;;;;;;3.60;3.30;;;;;;;15.53;100.00;93303.44;2097745;28;20588;-87
2021/08/22 01:15:16;;;;;;;7.13;3.63;;;;;;;15.56;100.00;93307.97;2102573;28;20050;-86
2021/08/22 01:16:19;;;;;;;3.88;3.47;;;;;;;15.56;100.00;93306.00;2097353;28;20028;-86
2021/08/22 01:17:21;;;;;;;4.10;3.60;;;;;;;15.48;100.00;93304.78;2089264;28;20047;-84
2021/08/22 01:18:25;;;;;;;3.72;3.42;;;;;;;15.45;100.00;93305.69;2097227;28;20358;-86
2021/08/22 01:19:32;;;;;;;3.90;3.47;;;;;;;15.46;100.00;93301.03;2096783;28;20055;-86
2021/08/22 01:21:04;;;;;;;3.47;3.17;;;;;;;15.44;100.00;93296.06;2097798;28;20028;-84
2021/08/22 01:22:07;;;;;;;3.50;3.20;;;;;;;15.45;100.00;93291.44;2104724;28;20024;-86
2021/08/22 01:23:09;;;;;;;3.67;3.38;;;;;;;15.43;100.00;93297.28;2105572;28;20031;-85
2021/08/22 01:24:11;;;;;;;4.03;3.60;;;;;;;15.41;100.00;93296.19;2105303;28;20024;-84
2021/08/22 01:25:14;;;;;;;4.40;2.95;;;;;;;15.43;100.00;93304.59;2096626;28;20024;-84
2021/08/22 01:26:18;;;;;;;4.80;3.50;;;;;;;15.40;100.00;93310.88;2105689;28;20124;-84
2021/08/22 01:27:20;;;;;;;3.42;3.13;;;;;;;15.39;100.00;93304.72;2097317;28;20083;-85
2021/08/22 01:28:23;;;;;;;3.30;3.00;;;;;;;15.33;100.00;93309.19;2097271;28;20174;-86
2021/08/22 01:29:29;;;;;;;5.07;3.25;;;;;;;15.33;100.00;93309.19;2096938;28;20028;-85
2021/08/22 01:30:36;;;;;;;3.70;3.30;;;;;;;15.36;100.00;93298.31;2089899;28;20470;-83
2021/08/22 01:31:46;;;;;;;4.63;3.08;;;;;;;15.34;100.00;93294.53;2098674;28;20289;-87
2021/08/22 01:32:50;;;;;;;4.15;3.40;;;;;;;15.32;100.00;93296.91;2099137;28;20024;-84
2021/08/22 01:33:54;;;;;;;5.05;3.45;;;;;;;15.30;100.00;93288.53;2100887;28;20024;-85
2021/08/22 01:34:55;;;;;;;4.65;3.90;;;;;;;15.30;100.00;93278.50;2103602;28;20067;-85
2021/08/22 01:35:56;;;;;;;5.53;3.80;;;;;;;15.33;100.00;93282.25;2105269;28;20402;-85
2021/08/22 01:36:59;;;;;;;5.63;3.70;;;;;;;15.36;100.00;93274.06;2113270;28;20074;-88
2021/08/22 01:37:59;;;;;;;3.90;3.60;;;;;;;15.31;100.00;93260.41;2104999;28;20076;-86
2021/08/22 01:39:01;;;;;;;4.55;3.80;;;;;;;15.30;100.00;93270.41;2096968;28;20056;-84
2021/08/22 01:40:04;;;;;;;3.83;3.50;;;;;;;15.33;100.00;93261.47;2104064;28;20031;-85
2021/08/22 01:41:07;;;;;;;5.45;3.72;;;;;;;15.18;100.00;93257.03;2105367;28;20030;-84
2021/08/22 01:42:09;;;;;;;4.65;3.88;;;;;;;15.21;100.00;93262.31;2100437;28;20496;-86
2021/08/22 01:43:11;;;;;;;4.95;3.40;;;;;;;15.23;100.00;93259.16;2100822;28;20027;-85
2021/08/22 01:44:17;;;;;;;3.97;3.65;;;;;;;15.21;100.00;93251.53;2105332;28;20455;-86
2021/08/22 01:45:20;;;;;;;4.43;4.03;;;;;;;15.21;100.00;93254.22;2097522;28;20077;-84
2021/08/22 01:46:27;;;;;;;4.40;3.45;;;;;;;15.25;100.00;93267.56;2097517;28;20032;-87
2021/08/22 01:47:29;;;;;;;5.63;4.13;;;;;;;15.28;100.00;93264.00;2097614;28;20039;-84
2021/08/22 01:48:31;;;;;;;3.90;3.60;;;;;;;15.26;100.00;93271.75;2096762;28;20573;-84
2021/08/22 01:49:32;;;;;;;5.32;3.70;;;;;;;15.25;100.00;93268.31;2104949;28;20098;-85
2021/08/22 01:50:33;;;;;;;8.18;4.00;;;;;;;15.27;100.00;93274.00;2088911;28;20064;-85
2021/08/22 01:51:35;;;;;;;4.30;3.90;;;;;;;15.28;100.00;93264.00;2088642;28;20048;-86
2021/08/22 01:52:37;;;;;;;3.75;3.45;;;;;;;15.23;100.00;93262.63;2088808;28;20064;-88
2021/08/22 01:53:38;;;;;;;7.22;4.03;;;;;;;15.15;100.00;93261.38;2105018;28;20523;-84
2021/08/22 01:54:41;;;;;;;5.15;4.35;;;;;;;15.13;100.00;93247.59;2096578;28;20032;-85
2021/08/22 01:55:42;;;;;;;4.20;3.80;;;;;;;15.16;100.00;93241.34;2093390;28;20032;-84
2021/08/22 01:56:43;;;;;;;6.40;3.80;;;;;;;15.19;100.00;93240.47;2105050;28;20062;-86
2021/08/22 01:57:45;;;;;;;5.28;3.63;;;;;;;15.25;100.00;93246.75;2104906;28;20511;-87
2021/08/22 01:58:46;;;;;;;5.90;4.25;;;;;;;15.23;100.00;93257.25;2096566;28;20024;-84
2021/08/22 01:59:46;;;;;;;7.93;3.90;;;;;;;15.31;100.00;93258.44;2104633;28;20035;-85
2021/08/22 02:00:49;;;;;;;4.63;3.88;;;;;;;15.33;100.00;93258.78;2104997;28;20038;-86
2021/08/22 02:01:50;;;;;;;5.70;4.50;;;;;;;15.34;100.00;93259.53;2097225;28;20033;-84
2021/08/22 02:03:03;;;;;;;5.60;4.25;;;;;;;15.35;100.00;93253.69;2096861;28;20036;-83
2021/08/22 02:04:23;;;;;;;4.25;3.85;;;;;;;15.34;100.00;93252.19;2091781;28;20048;-85
2021/08/22 02:07:08;;;;;;;;;;;;;;;15.29;100.00;93247.38;2146469;27;20117;-87
2021/08/22 02:08:19;;;;;;;4.18;3.78;;;;;;;15.16;100.00;93260.19;2121486;28;19923;-86
2021/08/22 02:09:31;;;;;;;5.47;4.07;;;;;;;15.28;100.00;93261.31;2116365;27;20443;-86
2021/08/22 02:10:35;;;;;;;4.53;4.13;;;;;;;15.31;100.00;93255.75;2122968;27;20411;-87
2021/08/22 02:11:44;;;;;;;4.30;3.90;;;;;;;15.29;100.00;93249.31;2129992;27;20106;-86
2021/08/22 02:12:48;;;;;;;5.57;4.10;;;;;;;15.22;100.00;93244.94;2106176;28;20032;-86
2021/08/22 02:13:50;;;;;;;6.00;3.80;;;;;;;15.16;100.00;93252.09;2098132;28;20028;-87
2021/08/22 02:15:01;;;;;;;4.68;4.18;;;;;;;15.10;100.00;93249.25;2112581;28;20016;-87
2021/08/22 02:16:06;;;;;;;5.22;3.95;;;;;;;15.10;100.00;93249.25;2106381;28;20067;-86
2021/08/22 02:17:08;;;;;;;5.22;4.00;;;;;;;15.09;100.00;93247.72;2109389;27;20027;-88
2021/08/22 02:18:12;;;;;;;4.45;4.00;;;;;;;15.09;100.00;93242.34;2121617;28;20029;-86
2021/08/22 02:19:14;;;;;;;4.95;4.00;;;;;;;15.03;100.00;93246.06;2117962;27;20023;-86
2021/08/22 02:20:15;;;;;;;4.70;4.25;;;;;;;14.98;100.00;93242.00;2113312;28;20027;-87
2021/08/22 02:21:16;;;;;;;4.53;3.97;;;;;;;15.01;100.00;93251.88;2105109;28;20020;-87
2021/08/22 02:22:17;;;;;;;4.28;3.88;;;;;;;15.04;100.00;93244.84;2104598;28;20473;-87
2021/08/22 02:23:19;;;;;;;4.65;4.25;;;;;;;15.02;100.00;93244.56;2113145;27;20034;-86
2021/08/22 02:24:20;;;;;;;4.60;3.95;;;;;;;15.01;100.00;93249.19;2121858;27;20023;-85
2021/08/22 02:25:21;;;;;;;4.43;4.00;;;;;;;15.00;100.00;93250.38;2120561;28;20023;-87
2021/08/22 02:26:25;;;;;;;4.88;4.10;;;;;;;15.00;100.00;93246.94;2113223;28;20105;-87
2021/08/22 02:27:30;;;;;;;4.55;4.13;;;;;;;15.01;100.00;93246.50;2116913;28;20027;-86
2021/08/22 02:28:33;;;;;;;4.55;4.10;;;;;;;15.03;100.00;93243.38;2122015;27;20038;-86
2021/08/22 02:29:45;;;;;;;3.80;3.50;;;;;;;14.97;100.00;93242.41;2121693;27;20561;-87
2021/08/22 02:30:49;;;;;;;4.20;3.70;;;;;;;14.96;100.00;93247.06;2114768;28;20114;-86
2021/08/22 02:31:50;;;;;;;6.43;3.70;;;;;;;14.90;100.00;93248.81;2114072;27;20050;-87
2021/08/22 02:32:52;;;;;;;5.60;4.05;;;;;;;14.87;100.00;93260.47;2121627;27;20023;-87
2021/08/22 02:33:57;;;;;;;6.85;4.20;;;;;;;14.84;100.00;93248.66;2113164;28;20047;-87
2021/08/22 02:34:58;;;;;;;5.68;4.25;;;;;;;14.84;100.00;93248.66;2105774;28;20028;-86
2021/08/22 02:35:59;;;;;;;5.40;3.78;;;;;;;14.83;100.00;93251.75;2113117;28;20023;-86
2021/08/22 02:37:00;;;;;;;4.57;4.05;;;;;;;14.82;100.00;93255.66;2121409;28;20024;-86
2021/08/22 02:38:01;;;;;;;4.68;4.28;;;;;;;14.84;100.00;93258.66;2121575;27;20031;-86
2021/08/22 02:39:03;;;;;;;4.97;4.53;;;;;;;14.86;100.00;93250.88;2121851;27;20095;-86
2021/08/22 02:40:04;;;;;;;4.20;3.78;;;;;;;14.83;100.00;93257.88;2112998;28;20114;-86
2021/08/22 02:41:05;;;;;;;5.97;4.43;;;;;;;14.86;100.00;93258.97;2113367;28;20023;-87
2021/08/22 02:42:07;;;;;;;4.07;3.78;;;;;;;14.87;100.00;93252.38;2116416;27;20027;-86
2021/08/22 02:43:08;;;;;;;4.75;4.07;;;;;;;14.90;100.00;93253.47;2113101;28;20032;-86
2021/08/22 02:44:09;;;;;;;5.18;4.20;;;;;;;14.91;100.00;93253.00;2104642;28;20539;-86
2021/08/22 02:45:10;;;;;;;5.18;4.18;;;;;;;14.88;100.00;93253.13;2112972;28;20027;-86
2021/08/22 02:46:11;;;;;;;4.65;3.88;;;;;;;14.85;100.00;93255.53;2113096;28;20024;-85
2021/08/22 02:47:14;;;;;;;4.63;4.22;;;;;;;14.92;100.00;93257.19;2112998;28;20077;-87
2021/08/22 02:48:15;;;;;;;4.57;4.18;;;;;;;14.89;100.00;93258.09;2121617;27;20023;-86
2021/08/22 02:49:16;;;;;;;4.00;3.70;;;;;;;14.91;100.00;93255.69;2121511;28;20506;-86
2021/08/22 02:50:17;;;;;;;5.57;4.00;;;;;;;14.84;100.00;93256.72;2113080;28;20032;-87
2021/08/22 02:51:18;;;;;;;4.47;4.07;;;;;;;14.81;100.00;93259.53;2112971;28;20028;-86
2021/08/22 02:52:19;;;;;;;4.18;3.78;;;;;;;14.79;100.00;93262.66;2113272;27;20498;-85
2021/08/22 02:53:20;;;;;;;5.20;3.95;;;;;;;14.79;100.00;93261.91;2121777;28;20058;-87
2021/08/22 02:54:20;;;;;;;4.75;4.22;;;;;;;14.77;100.00;93265.03;2108470;28;20030;-86
2021/08/22 02:55:22;;;;;;;4.63;4.15;;;;;;;14.80;100.00;93256.09;2124457;28;20023;-85
2021/08/22 02:56:22;;;;;;;4.70;4.05;;;;;;;14.77;100.00;93258.91;2123340;28;20007;-86
2021/08/22 02:57:23;;;;;;;4.50;4.10;;;;;;;14.79;100.00;93259.97;2110738;28;20032;-86
2021/08/22 02:58:24;;;;;;;4.22;3.83;;;;;;;14.77;100.00;93256.22;2104474;28;20020;-87
2021/08/22 02:59:25;;;;;;;4.30;3.90;;;;;;;14.76;100.00;93252.03;2121409;27;20048;-86
2021/08/22 03:00:26;;;;;;;4.80;3.95;;;;;;;14.78;100.00;93246.94;2121153;28;20495;-86
2021/08/22 03:01:27;;;;;;;4.35;3.95;;;;;;;14.77;100.00;93243.50;2110121;28;20545;-87
2021/08/22 03:02:28;;;;;;;4.03;3.65;;;;;;;14.77;100.00;93240.06;2104221;28;20074;-86
2021/08/22 03:03:29;;;;;;;4.88;4.38;;;;;;;14.77;100.00;93250.84;2112704;28;20069;-87
2021/08/22 03:04:30;;;;;;;4.53;3.88;;;;;;;14.77;100.00;93248.88;2119338;28;20034;-86
2021/08/22 03:05:31;;;;;;;4.35;3.95;;;;;;;14.76;100.00;93236.63;2121097;28;20047;-87
2021/08/22 03:06:32;;;;;;;7.15;4.38;;;;;;;14.75;100.00;93245.13;2112536;28;20047;-86
2021/08/22 03:07:33;;;;;;;4.28;3.63;;;;;;;14.74;100.00;93233.63;2104399;28;20028;-86
2021/08/22 03:08:34;;;;;;;4.38;3.97;;;;;;;14.76;100.00;93238.56;2104037;28;20017;-87
2021/08/22 03:09:35;;;;;;;6.63;4.30;;;;;;;14.71;100.00;93231.81;2093647;28;20073;-86
2021/08/22 03:10:36;;;;;;;6.50;4.15;;;;;;;14.76;100.00;93228.56;2112616;28;20073;-87
2021/08/22 03:11:37;;;;;;;4.38;4.07;;;;;;;14.73;100.00;93232.13;2120116;28;20038;-86
2021/08/22 03:12:39;;;;;;;4.40;4.00;;;;;;;14.67;100.00;93225.06;2112646;28;20492;-87
2021/08/22 03:13:39;;;;;;;4.35;3.95;;;;;;;14.68;100.00;93229.25;2112532;28;20047;-87
2021/08/22 03:14:40;;;;;;;4.55;4.18;;;;;;;14.72;100.00;93227.94;2112617;28;20035;-85
2021/08/22 03:15:41;;;;;;;6.32;3.92;;;;;;;14.68;100.00;93221.94;2104404;28;20051;-88
2021/08/22 03:16:42;;;;;;;4.22;3.88;;;;;;;14.61;100.00;93227.56;2121434;27;20145;-87
2021/08/22 03:17:43;;;;;;;5.68;3.78;;;;;;;14.67;100.00;93236.56;2110801;28;20019;-86
2021/08/22 03:18:44;;;;;;;4.47;4.05;;;;;;;14.66;100.00;93237.75;2090185;28;20559;-86
2021/08/22 03:19:45;;;;;;;10.40;4.63;;;;;;;14.63;100.00;93248.66;2098655;28;20028;-87
2021/08/22 03:20:46;;;;;;;4.57;4.18;;;;;;;14.69;100.00;93244.94;2098656;28;20492;-86
2021/08/22 03:21:47;;;;;;;4.05;3.65;;;;;;;14.68;100.00;93243.44;2107188;28;20098;-87
2021/08/22 03:22:48;;;;;;;5.45;4.00;;;;;;;14.70;100.00;93251.06;2106884;28;20020;-86
2021/08/22 03:23:49;;;;;;;4.80;4.40;;;;;;;14.67;100.00;93252.72;2090550;28;20072;-88
2021/08/22 03:24:50;;;;;;;4.55;4.15;;;;;;;14.72;100.00;93251.41;2098740;28;20055;-86
2021/08/22 03:25:51;;;;;;;4.90;4.32;;;;;;;14.74;100.00;93249.00;2106828;28;20111;-87
2021/08/22 03:26:52;;;;;;;4.65;4.25;;;;;;;14.73;100.00;93250.19;2106725;28;20099;-86
2021/08/22 03:27:53;;;;;;;3.90;3.60;;;;;;;14.71;100.00;93247.22;2106878;28;20496;-86
2021/08/22 03:28:53;;;;;;;4.30;3.90;;;;;;;14.70;100.00;93259.16;2107020;28;20048;-86
2021/08/22 03:29:54;;;;;;;5.13;4.30;;;;;;;14.74;100.00;93252.44;2098593;28;20032;-86
2021/08/22 03:30:55;;;;;;;4.70;4.30;;;;;;;14.73;100.00;93248.25;2090197;28;20017;-86
2021/08/22 03:31:56;;;;;;;5.60;3.92;;;;;;;14.74;100.00;93243.63;2106935;28;20510;-86
2021/08/22 03:32:57;;;;;;;5.15;4.13;;;;;;;14.73;100.00;93247.50;2115429;28;20525;-86
2021/08/22 03:33:58;;;;;;;5.85;4.10;;;;;;;14.76;100.00;93263.53;2106813;28;20024;-87
2021/08/22 03:34:59;;;;;;;4.70;4.28;;;;;;;14.76;100.00;93262.78;2106938;28;20456;-86
2021/08/22 03:36:00;;;;;;;4.40;4.00;;;;;;;14.76;100.00;93260.09;2106740;28;20020;-85
2021/08/22 03:37:01;;;;;;;4.28;3.88;;;;;;;14.77;100.00;93248.88;2106662;28;20039;-86
2021/08/22 03:38:02;;;;;;;5.13;4.07;;;;;;;14.66;100.00;93250.44;2115236;28;20487;-86
2021/08/22 03:39:04;;;;;;;4.88;4.47;;;;;;;14.60;100.00;93259.09;2098476;28;20227;-86
2021/08/22 03:40:06;;;;;;;5.65;4.40;;;;;;;14.64;100.00;93252.84;2093552;28;20119;-87
2021/08/22 03:41:07;;;;;;;6.32;4.80;;;;;;;14.62;100.00;93255.97;2098812;28;20034;-88
2021/08/22 03:42:08;;;;;;;4.53;4.13;;;;;;;14.61;100.00;93255.19;2090222;28;20036;-87
2021/08/22 03:43:09;;;;;;;4.82;4.28;;;;;;;14.65;100.00;93257.03;2097709;28;20489;-87
2021/08/22 03:44:10;;;;;;;4.65;3.85;;;;;;;14.62;100.00;93250.59;2093885;28;20055;-87
2021/08/22 03:45:11;;;;;;;5.05;4.28;;;;;;;14.65;100.00;93262.41;2099019;28;20425;-85
2021/08/22 03:46:12;;;;;;;4.47;4.07;;;;;;;14.62;100.00;93258.66;2114945;28;20024;-86
2021/08/22 03:47:12;;;;;;;4.30;3.90;;;;;;;14.57;100.00;93259.97;2106812;28;20053;-86
2021/08/22 03:48:13;;;;;;;4.82;4.40;;;;;;;14.59;100.00;93265.66;2115205;28;20034;-87
2021/08/22 03:49:14;;;;;;;4.63;3.92;;;;;;;14.65;100.00;93267.78;2115291;28;20020;-86
2021/08/22 03:50:16;;;;;;;4.45;4.05;;;;;;;14.66;100.00;93266.59;2115231;28;20027;-87
2021/08/22 03:51:17;;;;;;;4.32;3.95;;;;;;;14.67;100.00;93262.72;2098597;28;20044;-86
2021/08/22 03:52:18;;;;;;;4.28;3.88;;;;;;;14.67;100.00;93263.47;2090004;28;20469;-86
2021/08/22 03:53:19;;;;;;;4.28;3.92;;;;;;;14.68;100.00;93266.91;2098282;28;20020;-86
2021/08/22 03:54:20;;;;;;;5.00;3.72;;;;;;;14.65;100.00;93265.84;2098093;28;20029;-85
2021/08/22 03:55:21;;;;;;;6.95;4.30;;;;;;;14.65;100.00;93262.41;2106762;28;20024;-86
2021/08/22 03:56:22;;;;;;;4.57;3.85;;;;;;;14.63;100.00;93270.19;2098338;28;20016;-86
2021/08/22 03:57:23;;;;;;;4.72;4.15;;;;;;;14.61;100.00;93275.97;2098471;28;20538;-86
2021/08/22 03:58:24;;;;;;;5.22;4.30;;;;;;;14.60;100.00;93277.91;2106883;28;20088;-86
2021/08/22 03:59:25;;;;;;;4.28;3.88;;;;;;;14.65;100.00;93283.94;2115107;28;20031;-86
2021/08/22 04:00:26;;;;;;;4.78;3.63;;;;;;;14.65;100.00;93283.94;2098088;28;20021;-85
2021/08/22 04:01:27;;;;;;;4.03;3.60;;;;;;;14.65;100.00;93289.31;2089805;28;20546;-86
2021/08/22 04:02:28;;;;;;;4.65;4.00;;;;;;;14.65;100.00;93287.38;2106759;28;20024;-86
2021/08/22 04:03:29;;;;;;;6.55;4.13;;;;;;;14.68;100.00;93291.13;2115061;28;20030;-86
2021/08/22 04:04:30;;;;;;;4.90;4.22;;;;;;;14.68;100.00;93296.50;2114925;28;20027;-87
2021/08/22 04:05:32;;;;;;;5.38;4.47;;;;;;;14.64;100.00;93293.94;2098416;28;20071;-86
2021/08/22 04:06:34;;;;;;;6.25;5.22;;;;;;;14.65;100.00;93298.13;2097973;28;20048;-86
2021/08/22 04:07:35;;;;;;;5.00;4.50;;;;;;;14.67;100.00;93298.47;2106730;28;20035;-86
2021/08/22 04:08:37;;;;;;;9.70;4.75;;;;;;;14.63;100.00;93294.38;2105416;28;20030;-86
2021/08/22 04:09:37;;;;;;;6.95;4.85;;;;;;;14.68;100.00;93296.50;2099180;28;20078;-86
2021/08/22 04:10:40;;;;;;;4.95;4.38;;;;;;;14.68;100.00;93293.81;2102404;28;20070;-87
2021/08/22 04:11:44;;;;;;;5.63;4.80;;;;;;;14.69;100.00;93301.44;2106379;28;20062;-86
2021/08/22 04:12:45;;;;;;;4.32;4.03;;;;;;;14.68;100.00;93299.94;2098820;28;20024;-86
2021/08/22 04:13:45;;;;;;;4.55;4.15;;;;;;;14.63;100.00;93297.81;2106569;28;20028;-87
2021/08/22 04:14:46;;;;;;;5.28;4.53;;;;;;;14.65;100.00;93305.44;2094026;28;20053;-86
2021/08/22 04:15:47;;;;;;;5.70;4.72;;;;;;;14.66;100.00;93301.56;2098255;28;20515;-86
2021/08/22 04:16:49;;;;;;;5.80;4.30;;;;;;;14.66;100.00;93288.88;2098169;28;20358;-87
2021/08/22 04:17:50;;;;;;;5.57;4.63;;;;;;;14.68;100.00;93293.81;2095037;28;20024;-86
2021/08/22 04:18:51;;;;;;;5.47;4.47;;;;;;;14.68;100.00;93296.50;2106697;28;20024;-86
2021/08/22 04:19:52;;;;;;;11.98;4.60;;;;;;;14.57;100.00;93291.47;2098152;28;20437;-86
2021/08/22 04:20:54;;;;;;;4.97;4.22;;;;;;;14.51;100.00;93296.69;2093720;28;20020;-87
2021/08/22 04:21:56;;;;;;;4.55;4.15;;;;;;;14.52;100.00;93289.34;2098239;28;20453;-87
2021/08/22 04:22:57;;;;;;;4.55;4.15;;;;;;;14.56;100.00;93290.00;2098210;28;20036;-87
2021/08/22 04:23:58;;;;;;;4.95;4.45;;;;;;;14.58;100.00;93284.94;2098223;28;20065;-86
2021/08/22 04:24:59;;;;;;;4.78;4.28;;;;;;;14.53;100.00;93290.84;2104183;28;20492;-87
2021/08/22 04:26:01;;;;;;;6.95;4.40;;;;;;;14.52;100.00;93287.41;2106420;28;20056;-87
2021/08/22 04:27:03;;;;;;;4.88;4.10;;;;;;;14.46;100.00;93291.06;2106397;28;20020;-86
2021/08/22 04:28:07;;;;;;;7.18;4.65;;;;;;;14.43;100.00;93292.69;2106718;28;20116;-86
2021/08/22 04:29:09;;;;;;;4.20;3.60;;;;;;;14.39;100.00;93299.38;2106911;28;20547;-86
2021/08/22 04:30:11;;;;;;;5.43;4.20;;;;;;;14.46;100.00;93299.16;2105895;28;20020;-86
2021/08/22 04:31:12;;;;;;;4.30;3.90;;;;;;;14.49;100.00;93299.06;2106667;28;20047;-86
2021/08/22 04:32:13;;;;;;;4.40;4.00;;;;;;;14.49;100.00;93304.44;2106588;28;20043;-86
2021/08/22 04:33:13;;;;;;;5.65;4.63;;;;;;;14.53;100.00;93301.59;2114800;28;20046;-86
2021/08/22 04:34:14;;;;;;;4.78;4.25;;;;;;;14.51;100.00;93295.94;2106084;28;20044;-87
2021/08/22 04:35:15;;;;;;;6.10;4.53;;;;;;;14.50;100.00;93305.94;2090035;28;20021;-86
2021/08/22 04:36:16;;;;;;;4.88;4.38;;;;;;;14.50;100.00;93299.81;2097952;28;20044;-86
2021/08/22 04:37:18;;;;;;;4.72;4.30;;;;;;;14.53;100.00;93290.84;2106326;28;20038;-85
2021/08/22 04:38:19;;;;;;;6.20;4.13;;;;;;;14.54;100.00;93295.06;2096699;28;20098;-85
2021/08/22 04:39:20;;;;;;;5.75;4.07;;;;;;;14.52;100.00;93297.44;2097951;28;20036;-86
2021/08/22 04:40:21;;;;;;;6.20;4.25;;;;;;;14.58;100.00;93307.22;2097678;28;20024;-86
2021/08/22 04:41:22;;;;;;;4.85;3.95;;;;;;;14.63;100.00;93305.16;2097731;28;20067;-86
2021/08/22 04:42:23;;;;;;;3.92;3.58;;;;;;;14.57;100.00;93302.25;2097970;28;20025;-85
2021/08/22 04:43:25;;;;;;;6.20;4.22;;;;;;;14.50;100.00;93305.19;2120264;27;20417;-87
2021/08/22 04:44:25;;;;;;;4.32;3.92;;;;;;;14.46;100.00;93310.66;2109000;28;20104;-85
2021/08/22 04:45:27;;;;;;;4.65;4.25;;;;;;;14.44;100.00;93313.00;2103616;28;20420;-86
2021/08/22 04:46:27;;;;;;;5.22;4.03;;;;;;;14.43;100.00;93310.78;2097563;28;20029;-85
2021/08/22 04:47:28;;;;;;;4.03;3.72;;;;;;;14.47;100.00;93314.09;2106107;28;20036;-86
2021/08/22 04:48:29;;;;;;;4.05;3.47;;;;;;;14.49;100.00;93317.16;2106304;28;20119;-86
2021/08/22 04:49:30;;;;;;;4.32;3.92;;;;;;;14.49;100.00;93317.88;2106106;28;20093;-86
2021/08/22 04:50:31;;;;;;;4.10;3.70;;;;;;;14.54;100.00;93311.22;2106182;28;20368;-86
2021/08/22 04:51:32;;;;;;;4.25;3.88;;;;;;;14.49;100.00;93309.81;2105781;28;20024;-87